Time;durP1;ratioP1;P1;durP2;ratioP2;P2;SDS_P1;SDS_P2;PMS_P1;PMS_P2;Temp;Humidity;BMP_temperature;BMP_pressure;BME280_temperature;BME280_humidity;BME280_pressure;Samples;Min_cycle;Max_cycle;Signal;HPM_P1;HPM_P2
2021/11/01 00:02:36;;;;;;;8.57;7.13;;;5.80;99.90;;;;;;4636928;30;20074;-86
2021/11/01 00:05:08;;;;;;;10.65;8.02;;;5.80;99.90;;;;;;4656264;30;20172;-85
2021/11/01 00:08:23;;;;;;;10.07;7.78;;;5.80;99.90;;;;;;4677469;30;20476;-85
2021/11/01 00:11:19;;;;;;;10.13;5.80;;;5.70;99.90;;;;;;4675542;30;20050;-82
2021/11/01 00:14:17;;;;;;;12.55;7.45;;;5.70;99.90;;;;;;4620926;30;20589;-85
2021/11/01 00:17:11;;;;;;;8.57;5.63;;;5.80;99.90;;;;;;4633958;30;20055;-84
2021/11/01 00:19:51;;;;;;;6.32;4.85;;;6.00;99.90;;;;;;4643294;30;20080;-84
2021/11/01 00:22:40;;;;;;;8.13;6.55;;;6.20;99.90;;;;;;4642598;30;20086;-85
2021/11/01 00:25:21;;;;;;;7.60;5.60;;;6.30;99.90;;;;;;4642723;30;20526;-85
2021/11/01 00:27:59;;;;;;;5.72;4.35;;;6.20;99.90;;;;;;4642947;30;20605;-85
2021/11/01 00:30:46;;;;;;;4.50;4.07;;;5.90;99.90;;;;;;4656788;30;20053;-85
2021/11/01 00:33:42;;;;;;;4.93;4.43;;;5.70;99.90;;;;;;4644662;30;20053;-84
2021/11/01 00:36:26;;;;;;;4.55;4.22;;;5.50;99.90;;;;;;4695813;30;20539;-84
2021/11/01 00:39:09;;;;;;;5.95;4.53;;;5.60;99.90;;;;;;4695069;30;20053;-85
2021/11/01 00:42:10;;;;;;;6.93;4.95;;;5.70;99.90;;;;;;4669686;30;20060;-85
2021/11/01 00:44:42;;;;;;;4.43;4.03;;;5.60;99.90;;;;;;4695200;30;20053;-84
2021/11/01 00:47:20;;;;;;;7.13;5.32;;;5.70;99.90;;;;;;4679468;30;20061;-84
2021/11/01 00:50:16;;;;;;;5.43;4.03;;;5.70;99.90;;;;;;4698180;30;20088;-84
2021/11/01 00:52:52;;;;;;;7.15;4.82;;;5.70;99.90;;;;;;4683019;30;20340;-83
2021/11/01 00:55:48;;;;;;;4.85;4.35;;;5.60;99.90;;;;;;4683758;30;20052;-85
2021/11/01 00:58:25;;;;;;;4.90;4.45;;;5.70;99.90;;;;;;4692430;30;20515;-85
2021/11/01 01:00:59;;;;;;;6.20;4.03;;;5.70;99.90;;;;;;4709909;30;20060;-85
2021/11/01 01:03:33;;;;;;;6.65;4.25;;;5.70;99.90;;;;;;4712466;30;20057;-83
2021/11/01 01:06:10;;;;;;;5.90;4.93;;;5.70;99.90;;;;;;4728598;30;20052;-84
2021/11/01 01:08:48;;;;;;;;;;;5.70;99.90;;;;;;4714913;30;20064;-84
2021/11/01 01:11:19;;;;;;;7.35;6.63;;;5.80;99.90;;;;;;4729318;30;19934;-84
2021/11/01 01:14:04;;;;;;;8.23;5.50;;;5.80;99.90;;;;;;4722862;30;20069;-85
2021/11/01 01:16:58;;;;;;;6.45;5.32;;;5.80;99.90;;;;;;4719733;30;20064;-85
2021/11/01 01:20:08;;;;;;;5.05;4.55;;;5.80;99.90;;;;;;4728528;30;20088;-85
2021/11/01 01:22:46;;;;;;;6.10;3.92;;;5.40;99.90;;;;;;4727973;30;20063;-84
2021/11/01 01:25:24;;;;;;;8.88;5.50;;;5.10;99.90;;;;;;4699330;30;20053;-85
2021/11/01 01:27:54;;;;;;;9.20;5.70;;;5.20;99.90;;;;;;4711036;30;20057;-86
2021/11/01 01:30:35;;;;;;;9.70;7.05;;;5.40;99.90;;;;;;4707847;30;20505;-85
2021/11/01 01:33:10;;;;;;;9.32;5.25;;;5.60;99.90;;;;;;4689181;30;20057;-85
2021/11/01 01:35:49;;;;;;;8.88;6.05;;;5.40;99.90;;;;;;4696416;30;20061;-85
2021/11/01 01:38:24;;;;;;;6.80;5.85;;;5.40;99.90;;;;;;4711642;30;20056;-84
2021/11/01 01:41:17;;;;;;;8.05;5.85;;;5.40;99.90;;;;;;4687323;30;20057;-86
2021/11/01 01:44:04;;;;;;;11.27;5.63;;;5.60;99.90;;;;;;4711661;30;20500;-85
2021/11/01 01:46:35;;;;;;;6.05;5.45;;;5.70;99.90;;;;;;4687238;30;20057;-84
2021/11/01 01:49:10;;;;;;;4.60;3.67;;;5.60;99.90;;;;;;4697294;30;21288;-85
2021/11/01 01:51:42;;;;;;;7.40;5.15;;;5.40;99.90;;;;;;4711888;30;20053;-85
2021/11/01 01:54:34;;;;;;;6.10;5.32;;;5.10;99.90;;;;;;4711512;30;20065;-85
2021/11/01 01:57:03;;;;;;;6.78;5.65;;;5.10;99.90;;;;;;4702884;30;20495;-85
2021/11/01 01:59:37;;;;;;;5.90;5.40;;;5.10;99.90;;;;;;4697281;30;20514;-84
2021/11/01 02:02:16;;;;;;;5.85;4.30;;;5.30;99.90;;;;;;4711054;30;20076;-85
2021/11/01 02:04:51;;;;;;;5.65;4.50;;;5.30;99.90;;;;;;4710575;30;20079;-85
2021/11/01 02:07:46;;;;;;;9.32;7.15;;;5.10;99.90;;;;;;4732378;30;20045;-85
2021/11/01 02:10:35;;;;;;;;;;;;;;;;;;;;;
2021/11/01 02:13:28;;;;;;;7.65;6.13;;;5.10;99.90;;;;;;4724478;30;20045;-86
2021/11/01 02:16:11;;;;;;;8.65;5.70;;;5.30;99.90;;;;;;4681222;30;20062;-85
2021/11/01 02:18:51;;;;;;;6.63;5.40;;;5.50;99.90;;;;;;4697505;30;20057;-85
2021/11/01 02:21:45;;;;;;;5.82;4.72;;;5.50;99.90;;;;;;4691579;30;20045;-85
2021/11/01 02:24:22;;;;;;;6.03;5.35;;;5.50;99.90;;;;;;4698286;30;20378;-85
2021/11/01 02:27:11;;;;;;;5.78;5.28;;;5.60;99.90;;;;;;4689239;30;20130;-85
2021/11/01 02:29:50;;;;;;;9.40;6.45;;;5.30;99.90;;;;;;4675433;30;20057;-85
2021/11/01 02:32:46;;;;;;;6.72;6.07;;;5.30;99.90;;;;;;4696224;30;20136;-85
2021/11/01 02:35:39;;;;;;;7.57;5.57;;;5.40;99.90;;;;;;4682275;30;20057;-84
2021/11/01 02:38:24;;;;;;;8.40;6.30;;;5.60;99.90;;;;;;4697177;30;20061;-85
2021/11/01 02:41:27;;;;;;;4.20;2.97;;;5.70;99.90;;;;;;4681569;30;20058;-85
2021/11/01 02:44:28;;;;;;;4.68;3.45;;;5.40;99.90;;;;;;4668931;30;20494;-84
2021/11/01 02:47:01;;;;;;;5.10;4.60;;;5.10;99.90;;;;;;4685765;30;20057;-84
2021/11/01 02:49:41;;;;;;;3.92;3.47;;;5.00;99.90;;;;;;4689441;30;20049;-85
2021/11/01 02:52:21;;;;;;;5.18;4.72;;;5.20;99.90;;;;;;4696009;30;20069;-85
2021/11/01 02:54:56;;;;;;;5.03;4.40;;;5.20;99.90;;;;;;4695278;30;20061;-84
2021/11/01 02:57:31;;;;;;;6.07;4.45;;;5.10;99.90;;;;;;4694994;30;20045;-85
2021/11/01 03:00:28;;;;;;;3.78;2.92;;;5.10;99.90;;;;;;4682776;30;20073;-84
2021/11/01 03:03:05;;;;;;;5.25;4.35;;;5.20;99.90;;;;;;4659981;30;20551;-85
2021/11/01 03:05:50;;;;;;;5.35;3.80;;;5.20;99.90;;;;;;4711046;30;20205;-85
2021/11/01 03:08:28;;;;;;;;;;;5.30;99.90;;;;;;4732156;30;20051;-85
2021/11/01 03:11:09;;;;;;;4.05;3.38;;;5.20;99.90;;;;;;4722180;30;19938;-84
2021/11/01 03:13:58;;;;;;;4.68;4.18;;;5.40;99.90;;;;;;4722751;30;20057;-84
2021/11/01 03:16:37;;;;;;;6.10;5.10;;;5.50;99.90;;;;;;4729601;30;20484;-86
2021/11/01 03:19:18;;;;;;;5.20;4.63;;;5.70;99.90;;;;;;4716517;30;20049;-85
2021/11/01 03:22:20;;;;;;;6.80;3.58;;;5.80;99.90;;;;;;4722927;30;20436;-85
2021/11/01 03:25:23;;;;;;;4.63;3.90;;;5.70;99.90;;;;;;4709261;30;20386;-86
2021/11/01 03:28:05;;;;;;;4.63;4.20;;;5.30;99.90;;;;;;4696939;30;20056;-86
2021/11/01 03:30:56;;;;;;;4.97;4.20;;;5.20;99.90;;;;;;4693465;30;20053;-85
2021/11/01 03:33:57;;;;;;;4.93;4.07;;;5.30;99.90;;;;;;4696045;30;20049;-85
2021/11/01 03:36:39;;;;;;;5.97;5.50;;;5.50;99.90;;;;;;4697136;30;20061;-88
2021/11/01 03:39:22;;;;;;;5.55;4.57;;;5.50;99.90;;;;;;4696755;30;20382;-83
2021/11/01 03:42:16;;;;;;;4.40;3.05;;;5.10;99.90;;;;;;4687289;30;20480;-85
2021/11/01 03:44:57;;;;;;;7.28;5.68;;;4.90;99.90;;;;;;4695628;30;20057;-85
2021/11/01 03:47:47;;;;;;;6.38;5.22;;;4.90;99.90;;;;;;4695472;30;20058;-85
2021/11/01 03:51:37;;;;;;;4.25;3.65;;;5.20;99.90;;;;;;4674063;30;20061;-84
2021/11/01 03:54:11;;;;;;;4.40;4.10;;;5.50;99.90;;;;;;4696701;30;20052;-86
2021/11/01 03:56:52;;;;;;;4.85;4.38;;;5.50;99.90;;;;;;4682254;30;20061;-82
2021/11/01 03:59:44;;;;;;;9.75;4.53;;;5.20;99.90;;;;;;4695712;30;20525;-85
2021/11/01 04:02:30;;;;;;;5.05;4.55;;;5.30;99.90;;;;;;4694524;30;20529;-86
2021/11/01 04:05:14;;;;;;;5.10;4.05;;;5.40;99.90;;;;;;4717387;30;20473;-85
2021/11/01 04:08:03;;;;;;;4.95;4.47;;;5.60;99.90;;;;;;4732291;30;20068;-84
2021/11/01 04:10:56;;;;;;;4.72;4.15;;;5.50;99.90;;;;;;4731103;30;20255;-85
2021/11/01 04:14:12;;;;;;;6.00;5.53;;;5.30;99.90;;;;;;4702362;30;20539;-85
2021/11/01 04:16:59;;;;;;;10.52;6.45;;;5.30;99.90;;;;;;4711540;30;20057;-87
2021/11/01 04:20:59;;;;;;;4.53;3.55;;;5.40;99.90;;;;;;4713422;30;20535;-86
2021/11/01 04:23:30;;;;;;;6.07;5.43;;;5.50;99.90;;;;;;4684205;30;20468;-86
2021/11/01 04:26:23;;;;;;;6.63;5.35;;;5.80;99.90;;;;;;4713802;30;20052;-86
2021/11/01 04:29:07;;;;;;;6.05;4.30;;;6.00;99.90;;;;;;4690092;30;20056;-85
2021/11/01 04:31:56;;;;;;;26.67;6.13;;;6.10;99.90;;;;;;4696452;30;20072;-85
2021/11/01 04:35:17;;;;;;;6.47;4.15;;;6.10;99.90;;;;;;4714198;30;20053;-86
2021/11/01 04:38:22;;;;;;;7.63;5.32;;;5.90;99.90;;;;;;4712442;30;20053;-85
2021/11/01 04:55:33;;;;;;;7.90;3.90;;;5.60;99.90;;;;;;4709699;30;20057;-85
2021/11/01 04:58:17;;;;;;;7.60;4.80;;;5.50;99.90;;;;;;4712537;30;20049;-85
2021/11/01 05:01:05;;;;;;;5.70;5.20;;;5.40;99.90;;;;;;4710896;30;20318;-84
2021/11/01 05:04:03;;;;;;;5.13;4.35;;;5.10;99.90;;;;;;4698432;30;20064;-85
2021/11/01 05:06:58;;;;;;;7.32;4.88;;;5.00;99.90;;;;;;4696083;30;20057;-86
2021/11/01 05:12:46;;;;;;;5.18;4.22;;;5.20;99.90;;;;;;4696562;30;20053;-86
2021/11/01 05:24:29;;;;;;;5.03;4.53;;;5.20;99.90;;;;;;4695652;30;20054;-85
2021/11/01 05:30:54;;;;;;;5.53;4.00;;;5.50;99.90;;;;;;4675527;30;20050;-85
2021/11/01 05:37:22;;;;;;;11.73;5.43;;;5.90;99.90;;;;;;4693852;30;20060;-85
2021/11/01 05:40:51;;;;;;;4.13;3.78;;;6.10;99.90;;;;;;4681479;30;20181;-86
2021/11/01 05:44:09;;;;;;;4.50;3.33;;;6.20;99.90;;;;;;4688199;30;20498;-86
2021/11/01 05:47:46;;;;;;;6.00;3.75;;;6.40;99.90;;;;;;4685199;30;20048;-86
2021/11/01 05:50:43;;;;;;;5.45;3.88;;;6.70;99.90;;;;;;4693672;30;20062;-86
2021/11/01 06:14:00;;;;;;;;;;;;;;;;;;;;;
2021/11/01 06:16:59;;;;;;;7.75;6.68;;;5.50;99.90;;;;;;4661145;30;20076;-85
2021/11/01 06:20:01;;;;;;;3.28;3.00;;;6.00;99.90;;;;;;4637625;30;20123;-84
2021/11/01 06:23:13;;;;;;;;;;;;;;;;;;;;;
2021/11/01 06:26:39;;;;;;;6.90;4.50;;;6.70;99.90;;;;;;4680711;30;20065;-87
2021/11/01 06:29:26;;;;;;;8.15;4.47;;;6.90;99.90;;;;;;4693570;30;20056;-84
2021/11/01 06:50:36;;;;;;;3.58;3.28;;;8.10;99.90;;;;;;4678455;30;20378;-85
2021/11/01 07:19:52;;;;;;;5.65;2.40;;;9.50;99.90;;;;;;4631258;30;20055;-85
2021/11/01 08:37:53;;;;;;;5.95;5.22;;;10.70;99.90;;;;;;4680587;30;20049;-83
2021/11/01 08:41:10;;;;;;;6.25;5.65;;;11.00;99.90;;;;;;4695875;30;20057;-85
2021/11/01 09:01:53;;;;;;;6.47;3.92;;;10.90;99.90;;;;;;4688823;30;20547;-86
2021/11/01 09:07:52;;;;;;;6.80;5.07;;;11.20;99.90;;;;;;4671697;30;20057;-84
2021/11/01 09:19:50;;;;;;;6.53;5.18;;;11.10;99.90;;;;;;4712402;30;20049;-85
2021/11/01 09:25:56;;;;;;;6.43;4.95;;;11.10;99.90;;;;;;4714431;30;20571;-84
2021/11/01 09:43:52;;;;;;;5.45;3.65;;;10.70;99.90;;;;;;4697900;30;20052;-85
2021/11/01 09:46:29;;;;;;;;;;;10.70;99.90;;;;;;4714354;30;20064;-85
2021/11/01 09:53:36;;;;;;;5.85;2.28;;;10.50;99.90;;;;;;4654695;30;20065;-84
2021/11/01 09:59:22;;;;;;;4.40;2.72;;;10.50;99.90;;;;;;4678191;30;20070;-85
2021/11/01 10:03:11;;;;;;;4.13;3.50;;;10.40;99.90;;;;;;4684852;30;20049;-86
2021/11/01 10:06:23;;;;;;;3.03;2.30;;;10.50;99.90;;;;;;4693958;30;20066;-84
2021/11/01 10:13:20;;;;;;;3.15;1.65;;;10.50;99.90;;;;;;4678310;30;20526;-86
2021/11/01 10:19:04;;;;;;;6.82;4.45;;;10.30;99.90;;;;;;4664385;30;20526;-86
2021/11/01 10:21:59;;;;;;;1.00;1.00;;;10.30;99.90;;;;;;4676363;30;20069;-86
2021/11/01 10:24:45;;;;;;;2.45;1.80;;;10.30;99.90;;;;;;4681425;30;20050;-85
2021/11/01 10:27:46;;;;;;;1.60;1.50;;;10.20;99.90;;;;;;4639218;30;20069;-86
2021/11/01 10:30:16;;;;;;;;;;;10.10;99.90;;;;;;4664908;30;20097;-87
2021/11/01 10:32:47;;;;;;;2.85;2.47;;;10.10;99.90;;;;;;4678854;30;19934;-84
2021/11/01 10:35:32;;;;;;;1.63;1.52;;;10.00;99.90;;;;;;4680712;30;20420;-85
2021/11/01 10:38:25;;;;;;;2.67;1.88;;;10.00;99.90;;;;;;4668773;30;20061;-85
2021/11/01 10:47:55;;;;;;;1.40;1.30;;;9.80;99.90;;;;;;4668044;30;20053;-91
2021/11/01 10:59:17;;;;;;;1.35;1.08;;;9.70;99.90;;;;;;4701421;30;20066;-88
2021/11/01 11:13:13;;;;;;;2.38;1.92;;;8.90;99.90;;;;;;4716844;30;20053;-91
2021/11/01 11:15:42;;;;;;;3.95;1.15;;;8.90;99.90;;;;;;4734005;30;20462;-90
2021/11/01 11:18:44;;;;;;;2.95;1.42;;;8.90;99.90;;;;;;4719049;30;20065;-87
2021/11/01 11:30:15;;;;;;;0.80;0.63;;;8.70;99.90;;;;;;4709033;30;20458;-85
2021/11/01 11:38:25;;;;;;;0.70;0.50;;;8.70;99.90;;;;;;4735522;30;20047;-84
2021/11/01 11:47:01;;;;;;;0.50;0.50;;;8.70;99.90;;;;;;4715652;30;20053;-86
2021/11/01 11:47:12;;;;;;;1.27;0.77;;;8.70;99.90;;;;;;4714496;30;20053;-84
2021/11/01 11:50:09;;;;;;;0.45;0.45;;;8.70;99.90;;;;;;4703533;30;20049;-84
2021/11/01 11:52:49;;;;;;;;;;;8.80;99.90;;;;;;4716717;30;20068;-85
2021/11/01 11:55:41;;;;;;;3.05;1.38;;;8.90;99.90;;;;;;4724067;30;19938;-90
2021/11/01 11:58:34;;;;;;;2.45;1.10;;;8.80;99.90;;;;;;4733553;30;20049;-85
2021/11/01 12:06:11;;;;;;;5.65;2.10;;;8.80;99.90;;;;;;4689910;30;21011;-88
2021/11/01 12:18:52;;;;;;;2.88;1.05;;;8.90;99.90;;;;;;4655563;30;20053;-89
2021/11/01 12:22:02;;;;;;;1.52;1.13;;;9.00;99.90;;;;;;4660013;30;20736;-87
2021/11/01 12:25:11;;;;;;;5.57;1.40;;;8.90;99.90;;;;;;4678966;30;20061;-89
2021/11/01 12:28:52;;;;;;;1.70;1.23;;;8.90;99.90;;;;;;4646801;30;20051;-90
2021/11/01 12:36:49;;;;;;;0.98;0.98;;;8.90;99.90;;;;;;4573956;30;20638;-88
2021/11/01 16:25:58;;;;;;;1.63;1.52;;;7.60;99.90;;;;;;4583116;30;20050;-91
2021/11/01 16:29:26;;;;;;;0.82;0.82;;;7.70;99.90;;;;;;4677278;30;20061;-89
2021/11/01 16:32:07;;;;;;;1.10;1.00;;;7.50;99.90;;;;;;4675192;30;20070;-89
2021/11/01 16:34:37;;;;;;;1.17;1.13;;;7.40;99.90;;;;;;4691184;30;20054;-85
2021/11/01 16:39:47;;;;;;;1.13;1.08;;;7.20;99.90;;;;;;4678909;30;20065;-89
2021/11/01 16:42:36;;;;;;;1.27;1.17;;;7.10;99.90;;;;;;4692642;30;20053;-85
2021/11/01 16:45:17;;;;;;;0.85;0.80;;;7.10;99.90;;;;;;4677883;30;20070;-86
2021/11/01 16:47:46;;;;;;;1.38;0.80;;;7.00;99.90;;;;;;4684085;30;20562;-85
2021/11/01 16:50:24;;;;;;;0.95;0.95;;;7.00;99.90;;;;;;4707227;30;20053;-87
2021/11/01 16:52:54;;;;;;;1.30;1.30;;;7.00;99.90;;;;;;4703676;30;20060;-87
2021/11/01 16:55:38;;;;;;;0.60;0.60;;;6.90;99.90;;;;;;4704305;30;20080;-86
2021/11/01 16:58:14;;;;;;;1.00;1.00;;;6.90;99.90;;;;;;4715401;30;20056;-87
2021/11/01 17:00:57;;;;;;;1.60;1.30;;;6.80;99.90;;;;;;4716496;30;20056;-87
2021/11/01 17:03:45;;;;;;;0.80;0.80;;;6.80;99.90;;;;;;4688018;30;20150;-85
2021/11/01 18:54:16;;;;;;;1.00;1.00;;;6.40;99.90;;;;;;4682970;30;20057;-84
2021/11/01 18:57:48;;;;;;;0.70;0.70;;;6.30;99.90;;;;;;4631370;30;20038;-86
2021/11/01 19:00:57;;;;;;;0.80;0.80;;;6.30;99.90;;;;;;4634801;30;20104;-86
2021/11/01 19:03:45;;;;;;;0.60;0.60;;;6.20;99.90;;;;;;4699650;30;20500;-86
2021/11/01 19:06:24;;;;;;;0.75;0.60;;;6.30;99.90;;;;;;4699248;30;20090;-86
2021/11/01 20:15:19;;;;;;;0.85;0.85;;;6.00;99.90;;;;;;4758626;29;20419;-88
2021/11/01 21:25:40;;;;;;;2.55;2.35;;;6.10;99.90;;;;;;4763034;29;20055;-88
2021/11/01 21:28:08;;;;;;;2.25;2.10;;;6.20;99.90;;;;;;4755878;30;20071;-89
2021/11/01 21:30:36;;;;;;;2.65;2.45;;;6.20;99.90;;;;;;4779856;30;20064;-88
2021/11/01 21:33:05;;;;;;;2.40;1.98;;;6.20;99.90;;;;;;4733594;30;20056;-88
2021/11/01 21:35:41;;;;;;;2.88;2.65;;;6.10;99.90;;;;;;4750802;30;20067;-88
2021/11/01 21:38:09;;;;;;;3.15;2.95;;;6.10;99.90;;;;;;4783925;29;20055;-89
2021/11/01 21:40:44;;;;;;;1.50;1.40;;;6.10;99.90;;;;;;4781070;30;20055;-89
2021/11/01 21:43:14;;;;;;;2.03;1.90;;;6.10;99.90;;;;;;4753191;30;20497;-89
2021/11/01 21:45:45;;;;;;;2.47;1.70;;;6.20;99.90;;;;;;4735702;30;20398;-89
2021/11/01 21:48:15;;;;;;;2.00;1.90;;;6.20;99.90;;;;;;4766360;30;20062;-89
2021/11/01 21:50:46;;;;;;;1.90;1.80;;;6.20;99.90;;;;;;4752233;30;20062;-89
2021/11/01 21:53:21;;;;;;;2.50;2.30;;;6.10;99.90;;;;;;4758566;29;20059;-88
2021/11/01 21:55:49;;;;;;;1.70;1.60;;;6.20;99.90;;;;;;4756505;30;20059;-89
2021/11/01 21:59:10;;;;;;;1.08;1.05;;;6.20;99.90;;;;;;4751491;30;20060;-89
2021/11/01 22:01:28;;;;;;;1.08;1.08;;;6.20;99.90;;;;;;4765475;30;20048;-89
2021/11/01 22:10:22;;;;;;;2.58;2.38;;;6.20;99.90;;;;;;4739150;30;20055;-86
2021/11/01 22:22:08;;;;;;;2.75;1.17;;;6.20;99.90;;;;;;4760606;30;20061;-89
2021/11/01 22:39:05;;;;;;;1.52;1.42;;;6.20;99.90;;;;;;4706084;30;20048;-89
2021/11/01 22:41:46;;;;;;;1.33;1.23;;;6.10;99.90;;;;;;4750047;30;20506;-90
2021/11/01 23:03:04;;;;;;;;;;;;;;;;;;;;;
2021/11/01 23:35:56;;;;;;;3.30;3.00;;;6.10;99.90;;;;;;4631441;30;20060;-91
2021/11/01 23:43:33;;;;;;;2.75;2.55;;;6.10;99.90;;;;;;4624573;30;20035;-90
2021/11/01 23:46:40;;;;;;;;;;;;;;;;;;;;;
2021/11/01 23:49:47;;;;;;;1.92;1.83;;;6.20;99.90;;;;;;4749237;30;20049;-90
2021/11/01 23:56:46;;;;;;;3.05;2.75;;;6.20;99.90;;;;;;4734244;30;20499;-90
